sensor_id;sensor_type;location;lat;lon;timestamp;temperature;humidity
67050;DHT22;53955;52.442;13.284;2022-09-09T00:01:26;18.40;83.40
67050;DHT22;53955;52.442;13.284;2022-09-09T00:03:59;18.50;83.10
67050;DHT22;53955;52.442;13.284;2022-09-09T00:06:30;18.40;82.90
67050;DHT22;53955;52.442;13.284;2022-09-09T00:09:02;18.40;83.00
67050;DHT22;53955;52.442;13.284;2022-09-09T00:11:40;18.60;82.70
67050;DHT22;53955;52.442;13.284;2022-09-09T00:14:15;18.50;81.90
67050;DHT22;53955;52.442;13.284;2022-09-09T00:16:47;18.60;82.40
67050;DHT22;53955;52.442;13.284;2022-09-09T00:19:21;18.50;82.50
67050;DHT22;53955;52.442;13.284;2022-09-09T00:21:55;18.50;82.30
67050;DHT22;53955;52.442;13.284;2022-09-09T00:24:27;18.40;82.40
67050;DHT22;53955;52.442;13.284;2022-09-09T00:27:00;18.40;82.30
67050;DHT22;53955;52.442;13.284;2022-09-09T00:29:32;18.30;82.50
67050;DHT22;53955;52.442;13.284;2022-09-09T00:32:09;18.30;82.30
67050;DHT22;53955;52.442;13.284;2022-09-09T00:34:39;18.30;82.30
67050;DHT22;53955;52.442;13.284;2022-09-09T00:37:09;18.30;82.80
67050;DHT22;53955;52.442;13.284;2022-09-09T00:39:38;18.20;82.20
67050;DHT22;53955;52.442;13.284;2022-09-09T00:42:14;18.20;82.40
67050;DHT22;53955;52.442;13.284;2022-09-09T00:44:55;18.10;84.00
67050;DHT22;53955;52.442;13.284;2022-09-09T00:47:45;18.30;82.40
67050;DHT22;53955;52.442;13.284;2022-09-09T00:50:34;18.30;82.40
67050;DHT22;53955;52.442;13.284;2022-09-09T00:53:12;18.30;82.40
67050;DHT22;53955;52.442;13.284;2022-09-09T00:55:46;18.30;82.00
67050;DHT22;53955;52.442;13.284;2022-09-09T00:58:15;18.30;81.80
67050;DHT22;53955;52.442;13.284;2022-09-09T01:00:44;18.20;82.10
67050;DHT22;53955;52.442;13.284;2022-09-09T01:03:25;18.30;81.90
67050;DHT22;53955;52.442;13.284;2022-09-09T01:06:00;18.20;81.60
67050;DHT22;53955;52.442;13.284;2022-09-09T01:08:48;18.20;82.10
67050;DHT22;53955;52.442;13.284;2022-09-09T01:11:22;18.20;82.20
67050;DHT22;53955;52.442;13.284;2022-09-09T01:13:56;18.20;81.40
67050;DHT22;53955;52.442;13.284;2022-09-09T01:16:26;18.20;82.20
67050;DHT22;53955;52.442;13.284;2022-09-09T01:18:54;18.10;83.20
67050;DHT22;53955;52.442;13.284;2022-09-09T01:21:29;18.20;81.90
67050;DHT22;53955;52.442;13.284;2022-09-09T01:24:09;18.10;83.40
67050;DHT22;53955;52.442;13.284;2022-09-09T01:26:41;18.10;83.10
67050;DHT22;53955;52.442;13.284;2022-09-09T01:29:10;18.20;80.80
67050;DHT22;53955;52.442;13.284;2022-09-09T01:31:40;18.10;82.20
67050;DHT22;53955;52.442;13.284;2022-09-09T01:34:10;18.10;82.50
67050;DHT22;53955;52.442;13.284;2022-09-09T01:36:40;18.10;82.80
67050;DHT22;53955;52.442;13.284;2022-09-09T01:39:08;18.10;82.60
67050;DHT22;53955;52.442;13.284;2022-09-09T01:41:35;18.10;83.00
67050;DHT22;53955;52.442;13.284;2022-09-09T01:44:03;18.00;82.70
67050;DHT22;53955;52.442;13.284;2022-09-09T01:46:31;18.00;82.30
67050;DHT22;53955;52.442;13.284;2022-09-09T01:48:59;18.00;82.40
67050;DHT22;53955;52.442;13.284;2022-09-09T01:51:27;18.00;83.10
67050;DHT22;53955;52.442;13.284;2022-09-09T01:53:54;18.10;82.40
67050;DHT22;53955;52.442;13.284;2022-09-09T01:56:29;18.00;82.60
67050;DHT22;53955;52.442;13.284;2022-09-09T01:59:10;18.00;82.50
67050;DHT22;53955;52.442;13.284;2022-09-09T02:01:51;18.00;82.60
67050;DHT22;53955;52.442;13.284;2022-09-09T02:04:28;18.00;82.30
67050;DHT22;53955;52.442;13.284;2022-09-09T02:06:58;18.10;81.80
67050;DHT22;53955;52.442;13.284;2022-09-09T02:09:26;18.10;81.70
67050;DHT22;53955;52.442;13.284;2022-09-09T02:12:03;18.10;82.30
67050;DHT22;53955;52.442;13.284;2022-09-09T02:14:37;18.10;81.70
67050;DHT22;53955;52.442;13.284;2022-09-09T02:17:09;18.20;80.30
67050;DHT22;53955;52.442;13.284;2022-09-09T02:19:40;18.10;81.20
67050;DHT22;53955;52.442;13.284;2022-09-09T02:22:09;18.00;81.70
67050;DHT22;53955;52.442;13.284;2022-09-09T02:24:38;18.00;81.90
67050;DHT22;53955;52.442;13.284;2022-09-09T02:27:07;17.90;81.80
67050;DHT22;53955;52.442;13.284;2022-09-09T02:29:38;18.00;81.60
67050;DHT22;53955;52.442;13.284;2022-09-09T02:32:08;17.90;81.50
67050;DHT22;53955;52.442;13.284;2022-09-09T02:34:47;17.90;82.10
67050;DHT22;53955;52.442;13.284;2022-09-09T02:37:16;18.00;82.00
67050;DHT22;53955;52.442;13.284;2022-09-09T02:39:44;17.80;81.70
67050;DHT22;53955;52.442;13.284;2022-09-09T02:42:11;17.90;81.80
67050;DHT22;53955;52.442;13.284;2022-09-09T02:44:41;17.80;82.00
67050;DHT22;53955;52.442;13.284;2022-09-09T02:47:20;17.80;82.40
67050;DHT22;53955;52.442;13.284;2022-09-09T02:49:58;17.70;82.30
67050;DHT22;53955;52.442;13.284;2022-09-09T02:52:32;17.70;82.30
67050;DHT22;53955;52.442;13.284;2022-09-09T02:55:06;17.70;82.60
67050;DHT22;53955;52.442;13.284;2022-09-09T02:57:37;17.70;82.20
67050;DHT22;53955;52.442;13.284;2022-09-09T03:00:06;17.70;82.00
67050;DHT22;53955;52.442;13.284;2022-09-09T03:02:33;17.70;81.90
67050;DHT22;53955;52.442;13.284;2022-09-09T03:05:00;17.80;81.60
67050;DHT22;53955;52.442;13.284;2022-09-09T03:07:27;17.70;81.60
67050;DHT22;53955;52.442;13.284;2022-09-09T03:09:53;17.80;81.40
67050;DHT22;53955;52.442;13.284;2022-09-09T03:12:20;17.70;81.30
67050;DHT22;53955;52.442;13.284;2022-09-09T03:14:47;17.70;81.30
67050;DHT22;53955;52.442;13.284;2022-09-09T03:17:15;17.70;81.20
67050;DHT22;53955;52.442;13.284;2022-09-09T03:19:42;17.50;81.70
67050;DHT22;53955;52.442;13.284;2022-09-09T03:22:10;17.50;81.90
67050;DHT22;53955;52.442;13.284;2022-09-09T03:24:37;17.40;81.50
67050;DHT22;53955;52.442;13.284;2022-09-09T03:27:04;17.50;81.90
67050;DHT22;53955;52.442;13.284;2022-09-09T03:29:30;17.50;81.90
67050;DHT22;53955;52.442;13.284;2022-09-09T03:31:58;17.50;81.40
67050;DHT22;53955;52.442;13.284;2022-09-09T03:34:26;17.50;81.30
67050;DHT22;53955;52.442;13.284;2022-09-09T03:36:53;17.40;81.70
67050;DHT22;53955;52.442;13.284;2022-09-09T03:39:19;17.40;81.70
67050;DHT22;53955;52.442;13.284;2022-09-09T03:41:46;17.40;81.50
67050;DHT22;53955;52.442;13.284;2022-09-09T03:44:13;17.40;81.90
67050;DHT22;53955;52.442;13.284;2022-09-09T03:46:40;17.30;81.60
67050;DHT22;53955;52.442;13.284;2022-09-09T03:49:07;17.30;81.80
67050;DHT22;53955;52.442;13.284;2022-09-09T03:51:35;17.30;81.70
67050;DHT22;53955;52.442;13.284;2022-09-09T03:54:03;17.40;81.40
67050;DHT22;53955;52.442;13.284;2022-09-09T03:56:33;17.40;81.70
67050;DHT22;53955;52.442;13.284;2022-09-09T03:59:00;17.30;81.10
67050;DHT22;53955;52.442;13.284;2022-09-09T04:01:27;17.30;81.40
67050;DHT22;53955;52.442;13.284;2022-09-09T04:03:54;17.30;81.10
67050;DHT22;53955;52.442;13.284;2022-09-09T04:06:23;17.10;81.10
67050;DHT22;53955;52.442;13.284;2022-09-09T04:08:51;17.10;82.30
67050;DHT22;53955;52.442;13.284;2022-09-09T04:11:18;17.10;82.00
67050;DHT22;53955;52.442;13.284;2022-09-09T04:13:45;17.10;81.80
67050;DHT22;53955;52.442;13.284;2022-09-09T04:16:12;17.00;81.80
67050;DHT22;53955;52.442;13.284;2022-09-09T04:18:40;17.00;82.00
67050;DHT22;53955;52.442;13.284;2022-09-09T04:21:08;17.10;81.80
67050;DHT22;53955;52.442;13.284;2022-09-09T04:23:35;17.10;82.10
67050;DHT22;53955;52.442;13.284;2022-09-09T04:26:04;17.10;81.90
67050;DHT22;53955;52.442;13.284;2022-09-09T04:28:32;17.20;81.80
67050;DHT22;53955;52.442;13.284;2022-09-09T04:31:04;17.30;81.90
67050;DHT22;53955;52.442;13.284;2022-09-09T04:33:31;17.30;80.80
67050;DHT22;53955;52.442;13.284;2022-09-09T04:35:57;17.30;81.00
67050;DHT22;53955;52.442;13.284;2022-09-09T04:38:24;17.30;81.30
67050;DHT22;53955;52.442;13.284;2022-09-09T04:40:52;17.20;81.40
67050;DHT22;53955;52.442;13.284;2022-09-09T04:43:21;17.40;81.20
67050;DHT22;53955;52.442;13.284;2022-09-09T04:45:49;17.40;81.10
67050;DHT22;53955;52.442;13.284;2022-09-09T04:48:16;17.40;81.20
67050;DHT22;53955;52.442;13.284;2022-09-09T04:50:43;17.40;81.30
67050;DHT22;53955;52.442;13.284;2022-09-09T04:53:09;17.60;80.70
67050;DHT22;53955;52.442;13.284;2022-09-09T04:55:36;17.60;80.70
67050;DHT22;53955;52.442;13.284;2022-09-09T04:58:03;17.60;80.80
67050;DHT22;53955;52.442;13.284;2022-09-09T05:00:32;17.70;80.30
67050;DHT22;53955;52.442;13.284;2022-09-09T05:03:02;17.70;80.20
67050;DHT22;53955;52.442;13.284;2022-09-09T05:05:29;17.70;79.90
67050;DHT22;53955;52.442;13.284;2022-09-09T05:08:00;17.80;79.90
67050;DHT22;53955;52.442;13.284;2022-09-09T05:10:27;17.80;80.20
67050;DHT22;53955;52.442;13.284;2022-09-09T05:12:54;17.80;79.80
67050;DHT22;53955;52.442;13.284;2022-09-09T05:15:21;17.90;79.00
67050;DHT22;53955;52.442;13.284;2022-09-09T05:17:49;18.10;78.50
67050;DHT22;53955;52.442;13.284;2022-09-09T05:20:18;18.20;76.50
67050;DHT22;53955;52.442;13.284;2022-09-09T05:22:44;18.30;76.60
67050;DHT22;53955;52.442;13.284;2022-09-09T05:25:11;18.30;76.70
67050;DHT22;53955;52.442;13.284;2022-09-09T05:27:37;18.40;75.80
67050;DHT22;53955;52.442;13.284;2022-09-09T05:30:05;18.50;75.90
67050;DHT22;53955;52.442;13.284;2022-09-09T05:32:32;18.60;75.00
67050;DHT22;53955;52.442;13.284;2022-09-09T05:35:00;18.60;75.00
67050;DHT22;53955;52.442;13.284;2022-09-09T05:37:28;18.60;76.40
67050;DHT22;53955;52.442;13.284;2022-09-09T05:39:55;19.60;74.10
67050;DHT22;53955;52.442;13.284;2022-09-09T05:42:23;21.90;66.20
67050;DHT22;53955;52.442;13.284;2022-09-09T05:44:49;24.40;54.60
67050;DHT22;53955;52.442;13.284;2022-09-09T05:47:19;26.30;50.10
67050;DHT22;53955;52.442;13.284;2022-09-09T05:49:46;27.80;44.50
67050;DHT22;53955;52.442;13.284;2022-09-09T05:52:14;29.20;40.10
67050;DHT22;53955;52.442;13.284;2022-09-09T05:54:40;30.10;38.30
67050;DHT22;53955;52.442;13.284;2022-09-09T05:57:08;32.30;32.30
67050;DHT22;53955;52.442;13.284;2022-09-09T05:59:35;32.90;31.40
67050;DHT22;53955;52.442;13.284;2022-09-09T06:02:01;32.40;32.30
67050;DHT22;53955;52.442;13.284;2022-09-09T06:04:28;32.90;30.70
67050;DHT22;53955;52.442;13.284;2022-09-09T06:06:56;32.80;31.50
67050;DHT22;53955;52.442;13.284;2022-09-09T06:09:23;34.90;27.10
67050;DHT22;53955;52.442;13.284;2022-09-09T06:11:50;34.10;29.00
67050;DHT22;53955;52.442;13.284;2022-09-09T06:14:17;33.70;28.90
67050;DHT22;53955;52.442;13.284;2022-09-09T06:16:44;34.50;27.40
67050;DHT22;53955;52.442;13.284;2022-09-09T06:19:10;34.90;26.90
67050;DHT22;53955;52.442;13.284;2022-09-09T06:21:38;35.10;26.10
67050;DHT22;53955;52.442;13.284;2022-09-09T06:24:05;35.20;26.30
67050;DHT22;53955;52.442;13.284;2022-09-09T06:26:35;35.70;25.30
67050;DHT22;53955;52.442;13.284;2022-09-09T06:29:03;35.40;25.40
67050;DHT22;53955;52.442;13.284;2022-09-09T06:31:31;33.20;27.70
67050;DHT22;53955;52.442;13.284;2022-09-09T06:33:59;30.60;32.10
67050;DHT22;53955;52.442;13.284;2022-09-09T06:36:27;28.60;36.20
67050;DHT22;53955;52.442;13.284;2022-09-09T06:38:55;27.30;38.90
67050;DHT22;53955;52.442;13.284;2022-09-09T06:41:23;26.40;41.50
67050;DHT22;53955;52.442;13.284;2022-09-09T06:43:52;26.00;43.80
67050;DHT22;53955;52.442;13.284;2022-09-09T06:46:20;25.20;46.00
67050;DHT22;53955;52.442;13.284;2022-09-09T06:48:47;24.60;46.00
67050;DHT22;53955;52.442;13.284;2022-09-09T06:51:15;25.50;45.90
67050;DHT22;53955;52.442;13.284;2022-09-09T06:53:44;28.10;39.50
67050;DHT22;53955;52.442;13.284;2022-09-09T06:56:20;31.90;31.30
67050;DHT22;53955;52.442;13.284;2022-09-09T06:58:47;33.60;27.90
67050;DHT22;53955;52.442;13.284;2022-09-09T07:01:16;34.60;26.80
67050;DHT22;53955;52.442;13.284;2022-09-09T07:03:47;35.50;25.00
67050;DHT22;53955;52.442;13.284;2022-09-09T07:06:17;35.50;24.70
67050;DHT22;53955;52.442;13.284;2022-09-09T07:08:48;35.70;24.70
67050;DHT22;53955;52.442;13.284;2022-09-09T07:11:15;35.40;24.70
67050;DHT22;53955;52.442;13.284;2022-09-09T07:13:42;34.90;25.00
67050;DHT22;53955;52.442;13.284;2022-09-09T07:16:10;33.70;26.80
67050;DHT22;53955;52.442;13.284;2022-09-09T07:18:38;33.40;27.30
67050;DHT22;53955;52.442;13.284;2022-09-09T07:21:06;32.70;28.50
67050;DHT22;53955;52.442;13.284;2022-09-09T07:23:33;31.90;28.10
67050;DHT22;53955;52.442;13.284;2022-09-09T07:26:01;30.80;30.70
67050;DHT22;53955;52.442;13.284;2022-09-09T07:28:28;29.90;33.60
67050;DHT22;53955;52.442;13.284;2022-09-09T07:30:57;29.40;34.10
67050;DHT22;53955;52.442;13.284;2022-09-09T07:33:24;29.10;36.40
67050;DHT22;53955;52.442;13.284;2022-09-09T07:35:52;28.90;36.20
67050;DHT22;53955;52.442;13.284;2022-09-09T07:38:19;28.60;36.80
67050;DHT22;53955;52.442;13.284;2022-09-09T07:40:48;28.40;35.80
67050;DHT22;53955;52.442;13.284;2022-09-09T07:43:14;28.30;37.20
67050;DHT22;53955;52.442;13.284;2022-09-09T07:45:42;27.70;39.20
67050;DHT22;53955;52.442;13.284;2022-09-09T07:48:09;27.90;39.70
67050;DHT22;53955;52.442;13.284;2022-09-09T07:50:36;27.90;39.20
67050;DHT22;53955;52.442;13.284;2022-09-09T07:53:04;28.30;37.90
67050;DHT22;53955;52.442;13.284;2022-09-09T07:55:31;28.10;39.20
67050;DHT22;53955;52.442;13.284;2022-09-09T07:57:58;28.20;38.50
67050;DHT22;53955;52.442;13.284;2022-09-09T08:00:25;28.30;38.80
67050;DHT22;53955;52.442;13.284;2022-09-09T08:02:53;27.80;38.70
67050;DHT22;53955;52.442;13.284;2022-09-09T08:05:20;27.40;40.50
67050;DHT22;53955;52.442;13.284;2022-09-09T08:07:47;26.90;40.20
67050;DHT22;53955;52.442;13.284;2022-09-09T08:10:15;26.60;40.60
67050;DHT22;53955;52.442;13.284;2022-09-09T08:12:43;26.10;42.10
67050;DHT22;53955;52.442;13.284;2022-09-09T08:15:10;25.70;44.30
67050;DHT22;53955;52.442;13.284;2022-09-09T08:17:37;25.30;45.40
67050;DHT22;53955;52.442;13.284;2022-09-09T08:20:04;25.00;45.40
67050;DHT22;53955;52.442;13.284;2022-09-09T08:22:31;24.90;45.80
67050;DHT22;53955;52.442;13.284;2022-09-09T08:24:58;24.70;46.50
67050;DHT22;53955;52.442;13.284;2022-09-09T08:27:26;24.30;47.20
67050;DHT22;53955;52.442;13.284;2022-09-09T08:29:53;24.10;49.10
67050;DHT22;53955;52.442;13.284;2022-09-09T08:32:20;24.10;48.50
67050;DHT22;53955;52.442;13.284;2022-09-09T08:34:47;24.10;49.30
67050;DHT22;53955;52.442;13.284;2022-09-09T08:37:14;24.00;51.50
67050;DHT22;53955;52.442;13.284;2022-09-09T08:39:41;24.00;51.00
67050;DHT22;53955;52.442;13.284;2022-09-09T08:42:24;23.90;52.00
67050;DHT22;53955;52.442;13.284;2022-09-09T08:45:14;23.90;51.50
67050;DHT22;53955;52.442;13.284;2022-09-09T08:47:52;23.80;50.90
67050;DHT22;53955;52.442;13.284;2022-09-09T08:50:24;23.70;51.40
67050;DHT22;53955;52.442;13.284;2022-09-09T08:52:56;23.80;51.70
67050;DHT22;53955;52.442;13.284;2022-09-09T08:55:32;23.70;50.10
67050;DHT22;53955;52.442;13.284;2022-09-09T08:58:06;23.70;50.90
67050;DHT22;53955;52.442;13.284;2022-09-09T09:00:43;23.50;54.00
67050;DHT22;53955;52.442;13.284;2022-09-09T09:03:19;23.70;51.10
67050;DHT22;53955;52.442;13.284;2022-09-09T09:05:56;23.80;51.00
67050;DHT22;53955;52.442;13.284;2022-09-09T09:08:29;24.00;51.30
67050;DHT22;53955;52.442;13.284;2022-09-09T09:10:58;24.30;48.80
67050;DHT22;53955;52.442;13.284;2022-09-09T09:13:30;24.50;48.60
67050;DHT22;53955;52.442;13.284;2022-09-09T09:16:11;24.70;49.30
67050;DHT22;53955;52.442;13.284;2022-09-09T09:18:39;24.90;46.10
67050;DHT22;53955;52.442;13.284;2022-09-09T09:21:10;25.00;48.30
67050;DHT22;53955;52.442;13.284;2022-09-09T09:23:47;25.20;45.80
67050;DHT22;53955;52.442;13.284;2022-09-09T09:26:17;25.40;47.20
67050;DHT22;53955;52.442;13.284;2022-09-09T09:28:45;25.60;46.70
67050;DHT22;53955;52.442;13.284;2022-09-09T09:31:13;25.80;44.50
67050;DHT22;53955;52.442;13.284;2022-09-09T09:33:47;25.70;45.00
67050;DHT22;53955;52.442;13.284;2022-09-09T09:36:15;25.40;46.40
67050;DHT22;53955;52.442;13.284;2022-09-09T09:38:52;25.30;46.70
67050;DHT22;53955;52.442;13.284;2022-09-09T09:41:30;25.50;47.20
67050;DHT22;53955;52.442;13.284;2022-09-09T09:43:57;25.60;46.80
67050;DHT22;53955;52.442;13.284;2022-09-09T09:46:25;25.70;45.30
67050;DHT22;53955;52.442;13.284;2022-09-09T09:48:59;25.60;45.30
67050;DHT22;53955;52.442;13.284;2022-09-09T09:51:26;25.50;44.30
67050;DHT22;53955;52.442;13.284;2022-09-09T09:53:53;25.40;45.20
67050;DHT22;53955;52.442;13.284;2022-09-09T09:56:27;25.30;45.20
67050;DHT22;53955;52.442;13.284;2022-09-09T09:58:54;25.40;45.00
67050;DHT22;53955;52.442;13.284;2022-09-09T10:01:23;25.30;44.20
67050;DHT22;53955;52.442;13.284;2022-09-09T10:03:53;25.10;45.50
67050;DHT22;53955;52.442;13.284;2022-09-09T10:06:30;25.00;44.30
67050;DHT22;53955;52.442;13.284;2022-09-09T10:08:57;25.00;46.30
67050;DHT22;53955;52.442;13.284;2022-09-09T10:11:34;25.10;45.20
67050;DHT22;53955;52.442;13.284;2022-09-09T10:14:11;25.20;46.00
67050;DHT22;53955;52.442;13.284;2022-09-09T10:16:47;25.20;45.10
67050;DHT22;53955;52.442;13.284;2022-09-09T10:19:25;25.40;44.60
67050;DHT22;53955;52.442;13.284;2022-09-09T10:25:07;25.30;44.80
67050;DHT22;53955;52.442;13.284;2022-09-09T10:27:43;24.90;45.40
67050;DHT22;53955;52.442;13.284;2022-09-09T10:30:15;24.90;45.60
67050;DHT22;53955;52.442;13.284;2022-09-09T10:32:48;24.90;45.20
67050;DHT22;53955;52.442;13.284;2022-09-09T10:35:25;25.10;45.00
67050;DHT22;53955;52.442;13.284;2022-09-09T10:38:15;25.10;45.10
67050;DHT22;53955;52.442;13.284;2022-09-09T10:40:49;25.40;44.70
67050;DHT22;53955;52.442;13.284;2022-09-09T10:46:34;25.80;43.80
67050;DHT22;53955;52.442;13.284;2022-09-09T10:49:16;26.00;43.20
67050;DHT22;53955;52.442;13.284;2022-09-09T10:51:55;26.10;42.30
67050;DHT22;53955;52.442;13.284;2022-09-09T10:54:37;26.30;42.90
67050;DHT22;53955;52.442;13.284;2022-09-09T10:57:13;26.40;38.80
67050;DHT22;53955;52.442;13.284;2022-09-09T10:59:47;26.10;41.80
67050;DHT22;53955;52.442;13.284;2022-09-09T11:02:18;25.70;42.10
67050;DHT22;53955;52.442;13.284;2022-09-09T11:04:49;25.90;43.50
67050;DHT22;53955;52.442;13.284;2022-09-09T11:07:25;26.00;43.20
67050;DHT22;53955;52.442;13.284;2022-09-09T11:09:54;25.70;41.30
67050;DHT22;53955;52.442;13.284;2022-09-09T11:12:23;25.70;43.00
67050;DHT22;53955;52.442;13.284;2022-09-09T11:14:55;25.90;43.30
67050;DHT22;53955;52.442;13.284;2022-09-09T11:17:28;26.00;42.60
67050;DHT22;53955;52.442;13.284;2022-09-09T11:19:59;25.90;41.60
67050;DHT22;53955;52.442;13.284;2022-09-09T11:22:31;25.90;42.40
67050;DHT22;53955;52.442;13.284;2022-09-09T11:25:03;26.00;42.00
67050;DHT22;53955;52.442;13.284;2022-09-09T11:27:35;26.20;42.30
67050;DHT22;53955;52.442;13.284;2022-09-09T11:30:18;26.20;41.50
67050;DHT22;53955;52.442;13.284;2022-09-09T11:33:16;26.10;41.50
67050;DHT22;53955;52.442;13.284;2022-09-09T11:36:03;25.70;41.20
67050;DHT22;53955;52.442;13.284;2022-09-09T11:38:37;25.60;42.20
67050;DHT22;53955;52.442;13.284;2022-09-09T11:41:10;25.50;42.20
67050;DHT22;53955;52.442;13.284;2022-09-09T11:43:40;25.50;42.80
67050;DHT22;53955;52.442;13.284;2022-09-09T11:46:08;25.60;42.80
67050;DHT22;53955;52.442;13.284;2022-09-09T11:48:38;25.60;41.80
67050;DHT22;53955;52.442;13.284;2022-09-09T11:51:10;25.80;42.40
67050;DHT22;53955;52.442;13.284;2022-09-09T11:53:49;25.80;42.40
67050;DHT22;53955;52.442;13.284;2022-09-09T11:56:25;25.90;41.50
67050;DHT22;53955;52.442;13.284;2022-09-09T11:58:58;25.90;41.30
67050;DHT22;53955;52.442;13.284;2022-09-09T12:01:37;25.50;41.40
67050;DHT22;53955;52.442;13.284;2022-09-09T12:04:17;25.40;41.40
67050;DHT22;53955;52.442;13.284;2022-09-09T12:06:46;25.40;42.10
67050;DHT22;53955;52.442;13.284;2022-09-09T12:09:25;25.60;42.00
67050;DHT22;53955;52.442;13.284;2022-09-09T12:12:05;25.70;42.40
67050;DHT22;53955;52.442;13.284;2022-09-09T12:14:36;25.70;39.80
67050;DHT22;53955;52.442;13.284;2022-09-09T12:17:18;25.90;41.30
67050;DHT22;53955;52.442;13.284;2022-09-09T12:19:46;26.00;40.60
67050;DHT22;53955;52.442;13.284;2022-09-09T12:22:19;26.00;37.50
67050;DHT22;53955;52.442;13.284;2022-09-09T12:24:56;25.80;38.60
67050;DHT22;53955;52.442;13.284;2022-09-09T12:27:27;25.60;37.30
67050;DHT22;53955;52.442;13.284;2022-09-09T12:30:02;25.50;37.20
67050;DHT22;53955;52.442;13.284;2022-09-09T12:32:29;25.40;39.30
67050;DHT22;53955;52.442;13.284;2022-09-09T12:34:59;25.30;39.00
67050;DHT22;53955;52.442;13.284;2022-09-09T12:37:32;25.30;39.20
67050;DHT22;53955;52.442;13.284;2022-09-09T12:40:03;25.30;40.00
67050;DHT22;53955;52.442;13.284;2022-09-09T12:42:30;25.30;37.90
67050;DHT22;53955;52.442;13.284;2022-09-09T12:44:59;25.20;38.40
67050;DHT22;53955;52.442;13.284;2022-09-09T12:47:36;25.30;39.40
67050;DHT22;53955;52.442;13.284;2022-09-09T12:50:15;25.20;39.60
67050;DHT22;53955;52.442;13.284;2022-09-09T12:52:43;25.20;40.20
67050;DHT22;53955;52.442;13.284;2022-09-09T12:55:18;25.10;40.60
67050;DHT22;53955;52.442;13.284;2022-09-09T12:57:48;25.20;40.30
67050;DHT22;53955;52.442;13.284;2022-09-09T13:00:17;25.10;40.70
67050;DHT22;53955;52.442;13.284;2022-09-09T13:02:47;25.20;41.10
67050;DHT22;53955;52.442;13.284;2022-09-09T13:05:18;25.00;40.30
67050;DHT22;53955;52.442;13.284;2022-09-09T13:07:45;25.00;41.20
67050;DHT22;53955;52.442;13.284;2022-09-09T13:10:13;25.00;41.60
67050;DHT22;53955;52.442;13.284;2022-09-09T13:12:42;25.00;40.90
67050;DHT22;53955;52.442;13.284;2022-09-09T13:15:15;24.90;40.90
67050;DHT22;53955;52.442;13.284;2022-09-09T13:17:50;24.90;41.30
67050;DHT22;53955;52.442;13.284;2022-09-09T13:20:18;24.90;41.20
67050;DHT22;53955;52.442;13.284;2022-09-09T13:22:48;24.90;41.00
67050;DHT22;53955;52.442;13.284;2022-09-09T13:25:21;24.90;40.60
67050;DHT22;53955;52.442;13.284;2022-09-09T13:28:02;24.90;40.40
67050;DHT22;53955;52.442;13.284;2022-09-09T13:30:30;25.00;41.30
67050;DHT22;53955;52.442;13.284;2022-09-09T13:33:06;25.10;40.60
67050;DHT22;53955;52.442;13.284;2022-09-09T13:35:33;25.20;41.20
67050;DHT22;53955;52.442;13.284;2022-09-09T13:38:07;25.40;39.20
67050;DHT22;53955;52.442;13.284;2022-09-09T13:40:35;25.50;40.10
67050;DHT22;53955;52.442;13.284;2022-09-09T13:43:03;25.60;40.70
67050;DHT22;53955;52.442;13.284;2022-09-09T13:45:30;25.80;40.00
67050;DHT22;53955;52.442;13.284;2022-09-09T13:48:09;25.90;41.20
67050;DHT22;53955;52.442;13.284;2022-09-09T13:50:36;25.70;40.40
67050;DHT22;53955;52.442;13.284;2022-09-09T13:53:03;25.70;40.10
67050;DHT22;53955;52.442;13.284;2022-09-09T13:55:30;25.70;40.60
67050;DHT22;53955;52.442;13.284;2022-09-09T13:57:58;25.50;39.00
67050;DHT22;53955;52.442;13.284;2022-09-09T14:00:29;25.60;39.80
67050;DHT22;53955;52.442;13.284;2022-09-09T14:02:56;25.40;39.20
67050;DHT22;53955;52.442;13.284;2022-09-09T14:05:23;25.50;39.40
67050;DHT22;53955;52.442;13.284;2022-09-09T14:07:50;25.40;38.10
67050;DHT22;53955;52.442;13.284;2022-09-09T14:10:17;25.40;39.30
67050;DHT22;53955;52.442;13.284;2022-09-09T14:12:43;25.30;40.20
67050;DHT22;53955;52.442;13.284;2022-09-09T14:15:12;25.30;39.60
67050;DHT22;53955;52.442;13.284;2022-09-09T14:17:41;25.30;38.20
67050;DHT22;53955;52.442;13.284;2022-09-09T14:20:08;25.20;39.30
67050;DHT22;53955;52.442;13.284;2022-09-09T14:22:37;25.30;38.70
67050;DHT22;53955;52.442;13.284;2022-09-09T14:25:05;25.40;39.40
67050;DHT22;53955;52.442;13.284;2022-09-09T14:27:34;25.50;37.30
67050;DHT22;53955;52.442;13.284;2022-09-09T14:30:01;25.50;37.90
67050;DHT22;53955;52.442;13.284;2022-09-09T14:32:27;25.50;37.20
67050;DHT22;53955;52.442;13.284;2022-09-09T14:34:55;25.30;38.50
67050;DHT22;53955;52.442;13.284;2022-09-09T14:37:22;25.40;39.60
67050;DHT22;53955;52.442;13.284;2022-09-09T14:39:49;25.40;41.00
67050;DHT22;53955;52.442;13.284;2022-09-09T14:42:17;25.20;42.10
67050;DHT22;53955;52.442;13.284;2022-09-09T14:44:44;25.20;40.90
67050;DHT22;53955;52.442;13.284;2022-09-09T14:47:10;25.00;40.00
67050;DHT22;53955;52.442;13.284;2022-09-09T14:49:37;24.90;41.50
67050;DHT22;53955;52.442;13.284;2022-09-09T14:52:05;24.90;43.40
67050;DHT22;53955;52.442;13.284;2022-09-09T14:54:32;24.80;42.70
67050;DHT22;53955;52.442;13.284;2022-09-09T14:56:59;24.90;42.30
67050;DHT22;53955;52.442;13.284;2022-09-09T14:59:25;24.90;42.60
67050;DHT22;53955;52.442;13.284;2022-09-09T15:01:52;25.00;43.40
67050;DHT22;53955;52.442;13.284;2022-09-09T15:04:18;25.10;41.80
67050;DHT22;53955;52.442;13.284;2022-09-09T15:06:46;25.10;43.00
67050;DHT22;53955;52.442;13.284;2022-09-09T15:09:15;25.00;41.20
67050;DHT22;53955;52.442;13.284;2022-09-09T15:11:42;25.10;42.10
67050;DHT22;53955;52.442;13.284;2022-09-09T15:14:09;25.10;42.50
67050;DHT22;53955;52.442;13.284;2022-09-09T15:16:38;25.10;41.30
67050;DHT22;53955;52.442;13.284;2022-09-09T15:19:05;25.10;41.40
67050;DHT22;53955;52.442;13.284;2022-09-09T15:21:34;25.20;41.60
67050;DHT22;53955;52.442;13.284;2022-09-09T15:24:02;25.30;40.60
67050;DHT22;53955;52.442;13.284;2022-09-09T15:26:31;25.40;40.50
67050;DHT22;53955;52.442;13.284;2022-09-09T15:28:57;25.30;40.80
67050;DHT22;53955;52.442;13.284;2022-09-09T15:31:27;25.50;40.90
67050;DHT22;53955;52.442;13.284;2022-09-09T15:33:57;25.40;40.90
67050;DHT22;53955;52.442;13.284;2022-09-09T15:36:27;25.50;39.90
67050;DHT22;53955;52.442;13.284;2022-09-09T15:38:54;25.60;39.40
67050;DHT22;53955;52.442;13.284;2022-09-09T15:41:22;25.50;38.60